sensor_id;sensor_type;location;lat;lon;timestamp;pressure;altitude;pressure_sealevel;temperature;humidity
47753;BME280;2038;51.728;6.674;2023-03-04T00:00:53;101868.78;;;6.84;93.48
47753;BME280;2038;51.728;6.674;2023-03-04T00:03:19;101868.59;;;6.83;93.45
47753;BME280;2038;51.728;6.674;2023-03-04T00:05:45;101868.91;;;6.94;94.11
47753;BME280;2038;51.728;6.674;2023-03-04T00:08:12;101874.13;;;6.79;93.94
47753;BME280;2038;51.728;6.674;2023-03-04T00:10:38;101874.28;;;6.89;94.56
47753;BME280;2038;51.728;6.674;2023-03-04T00:13:04;101876.22;;;6.91;93.61
47753;BME280;2038;51.728;6.674;2023-03-04T00:15:30;101877.84;;;6.99;93.04
47753;BME280;2038;51.728;6.674;2023-03-04T00:17:57;101861.19;;;6.93;93.64
47753;BME280;2038;51.728;6.674;2023-03-04T00:20:23;101875.63;;;6.85;93.45
47753;BME280;2038;51.728;6.674;2023-03-04T00:22:49;101872.19;;;6.76;94.04
47753;BME280;2038;51.728;6.674;2023-03-04T00:25:15;101864.59;;;6.85;93.88
47753;BME280;2038;51.728;6.674;2023-03-04T00:27:41;101869.97;;;6.88;93.48
47753;BME280;2038;51.728;6.674;2023-03-04T00:30:08;101871.91;;;6.82;93.60
47753;BME280;2038;51.728;6.674;2023-03-04T00:32:35;101872.34;;;6.86;93.88
47753;BME280;2038;51.728;6.674;2023-03-04T00:35:01;101865.06;;;6.89;93.72
47753;BME280;2038;51.728;6.674;2023-03-04T00:37:27;101861.91;;;6.92;93.18
47753;BME280;2038;51.728;6.674;2023-03-04T00:39:53;101857.91;;;6.94;93.24
47753;BME280;2038;51.728;6.674;2023-03-04T00:42:20;101858.19;;;6.97;93.13
47753;BME280;2038;51.728;6.674;2023-03-04T00:44:46;101862.97;;;6.94;92.89
47753;BME280;2038;51.728;6.674;2023-03-04T00:47:12;101857.59;;;6.91;92.89
47753;BME280;2038;51.728;6.674;2023-03-04T00:49:38;101855.66;;;6.88;92.64
47753;BME280;2038;51.728;6.674;2023-03-04T00:52:05;101859.38;;;6.92;92.61
47753;BME280;2038;51.728;6.674;2023-03-04T00:54:31;101859.66;;;6.86;92.80
47753;BME280;2038;51.728;6.674;2023-03-04T00:56:57;101866.69;;;6.89;93.04
47753;BME280;2038;51.728;6.674;2023-03-04T00:59:24;101847.88;;;6.87;92.78
47753;BME280;2038;51.728;6.674;2023-03-04T01:01:50;101855.94;;;6.91;92.46
47753;BME280;2038;51.728;6.674;2023-03-04T01:04:16;101850.59;;;6.88;92.68
47753;BME280;2038;51.728;6.674;2023-03-04T01:06:42;101851.31;;;6.87;93.03
47753;BME280;2038;51.728;6.674;2023-03-04T01:09:08;101854.16;;;6.90;93.29
47753;BME280;2038;51.728;6.674;2023-03-04T01:11:35;101852.22;;;6.88;93.11
47753;BME280;2038;51.728;6.674;2023-03-04T01:14:01;101845.97;;;7.01;93.33
47753;BME280;2038;51.728;6.674;2023-03-04T01:16:27;101852.97;;;7.04;92.73
47753;BME280;2038;51.728;6.674;2023-03-04T01:18:53;101853.13;;;7.05;91.72
47753;BME280;2038;51.728;6.674;2023-03-04T01:21:20;101856.22;;;7.03;92.57
47753;BME280;2038;51.728;6.674;2023-03-04T01:23:46;101852.06;;;6.95;92.65
47753;BME280;2038;51.728;6.674;2023-03-04T01:26:13;101844.16;;;6.83;92.42
47753;BME280;2038;51.728;6.674;2023-03-04T01:28:39;101847.75;;;6.85;92.70
47753;BME280;2038;51.728;6.674;2023-03-04T01:31:06;101845.34;;;6.87;93.01
47753;BME280;2038;51.728;6.674;2023-03-04T01:33:32;101844.16;;;6.83;92.11
47753;BME280;2038;51.728;6.674;2023-03-04T01:35:58;101845.22;;;6.77;92.77
47753;BME280;2038;51.728;6.674;2023-03-04T01:38:25;101847.03;;;6.78;92.23
47753;BME280;2038;51.728;6.674;2023-03-04T01:40:51;101842.25;;;6.81;92.40
47753;BME280;2038;51.728;6.674;2023-03-04T01:43:24;101843.28;;;6.83;91.60
47753;BME280;2038;51.728;6.674;2023-03-04T01:45:53;101842.38;;;6.82;92.23
47753;BME280;2038;51.728;6.674;2023-03-04T01:48:29;101841.06;;;6.86;92.03
47753;BME280;2038;51.728;6.674;2023-03-04T01:50:59;101839.09;;;6.83;92.50
47753;BME280;2038;51.728;6.674;2023-03-04T01:53:28;101836.00;;;6.77;92.49
47753;BME280;2038;51.728;6.674;2023-03-04T01:56:01;101840.00;;;6.75;92.89
47753;BME280;2038;51.728;6.674;2023-03-04T01:58:35;101837.63;;;6.77;92.07
47753;BME280;2038;51.728;6.674;2023-03-04T02:01:01;101839.53;;;6.71;92.78
47753;BME280;2038;51.728;6.674;2023-03-04T02:03:28;101835.97;;;6.69;92.65
47753;BME280;2038;51.728;6.674;2023-03-04T02:05:55;101829.28;;;6.69;92.46
47753;BME280;2038;51.728;6.674;2023-03-04T02:08:23;101834.19;;;6.68;92.23
47753;BME280;2038;51.728;6.674;2023-03-04T02:10:50;101820.78;;;6.69;92.81
47753;BME280;2038;51.728;6.674;2023-03-04T02:13:17;101825.41;;;6.64;93.23
47753;BME280;2038;51.728;6.674;2023-03-04T02:15:45;101821.06;;;6.63;93.06
47753;BME280;2038;51.728;6.674;2023-03-04T02:18:16;101821.06;;;6.63;93.65
47753;BME280;2038;51.728;6.674;2023-03-04T02:21:01;101815.72;;;6.69;93.50
47753;BME280;2038;51.728;6.674;2023-03-04T02:26:25;101813.63;;;6.82;92.92
47753;BME280;2038;51.728;6.674;2023-03-04T02:28:54;101808.97;;;6.86;93.43
47753;BME280;2038;51.728;6.674;2023-03-04T02:31:26;101808.25;;;6.87;92.84
47753;BME280;2038;51.728;6.674;2023-03-04T02:33:57;101793.94;;;6.88;93.48
47753;BME280;2038;51.728;6.674;2023-03-04T02:36:25;101799.91;;;6.88;93.11
47753;BME280;2038;51.728;6.674;2023-03-04T02:38:54;101797.81;;;6.76;93.77
47753;BME280;2038;51.728;6.674;2023-03-04T02:41:25;101797.66;;;6.74;94.18
47753;BME280;2038;51.728;6.674;2023-03-04T02:43:55;101795.28;;;6.76;93.55
47753;BME280;2038;51.728;6.674;2023-03-04T02:46:22;101795.75;;;6.72;93.76
47753;BME280;2038;51.728;6.674;2023-03-04T02:48:49;101791.72;;;6.74;93.63
47753;BME280;2038;51.728;6.674;2023-03-04T02:51:16;101796.94;;;6.75;93.85
47753;BME280;2038;51.728;6.674;2023-03-04T02:53:42;101787.97;;;6.79;94.50
47753;BME280;2038;51.728;6.674;2023-03-04T02:56:08;101794.69;;;6.78;94.60
47753;BME280;2038;51.728;6.674;2023-03-04T02:58:35;101797.09;;;6.77;94.30
47753;BME280;2038;51.728;6.674;2023-03-04T03:01:04;101785.91;;;6.75;95.09
47753;BME280;2038;51.728;6.674;2023-03-04T03:03:31;101789.31;;;6.75;94.99
47753;BME280;2038;51.728;6.674;2023-03-04T03:05:57;101783.97;;;6.81;94.24
47753;BME280;2038;51.728;6.674;2023-03-04T03:08:24;101780.53;;;6.80;94.39
47753;BME280;2038;51.728;6.674;2023-03-04T03:10:50;101785.00;;;6.74;94.75
47753;BME280;2038;51.728;6.674;2023-03-04T03:13:16;101780.81;;;6.66;94.84
47753;BME280;2038;51.728;6.674;2023-03-04T03:15:43;101774.00;;;6.65;94.60
47753;BME280;2038;51.728;6.674;2023-03-04T03:18:11;101778.63;;;6.61;94.63
47753;BME280;2038;51.728;6.674;2023-03-04T03:20:37;101777.88;;;6.62;94.67
47753;BME280;2038;51.728;6.674;2023-03-04T03:23:03;101774.44;;;6.61;94.30
47753;BME280;2038;51.728;6.674;2023-03-04T03:25:30;101763.88;;;6.56;94.45
47753;BME280;2038;51.728;6.674;2023-03-04T03:27:56;101763.13;;;6.57;94.27
47753;BME280;2038;51.728;6.674;2023-03-04T03:30:22;101765.94;;;6.61;94.03
47753;BME280;2038;51.728;6.674;2023-03-04T03:32:49;101772.66;;;6.60;94.02
47753;BME280;2038;51.728;6.674;2023-03-04T03:35:15;101761.34;;;6.56;94.10
47753;BME280;2038;51.728;6.674;2023-03-04T03:37:41;101764.59;;;6.55;94.27
47753;BME280;2038;51.728;6.674;2023-03-04T03:40:08;101766.69;;;6.59;94.54
47753;BME280;2038;51.728;6.674;2023-03-04T03:42:35;101754.91;;;6.60;94.97
47753;BME280;2038;51.728;6.674;2023-03-04T03:45:01;101759.38;;;6.54;95.40
47753;BME280;2038;51.728;6.674;2023-03-04T03:47:27;101754.47;;;6.64;94.21
47753;BME280;2038;51.728;6.674;2023-03-04T03:49:54;101759.09;;;6.68;94.39
47753;BME280;2038;51.728;6.674;2023-03-04T03:52:20;101758.03;;;6.66;93.72
47753;BME280;2038;51.728;6.674;2023-03-04T03:54:46;101761.00;;;6.62;94.02
47753;BME280;2038;51.728;6.674;2023-03-04T03:57:12;101761.34;;;6.65;94.66
47753;BME280;2038;51.728;6.674;2023-03-04T03:59:38;101765.22;;;6.62;94.79
47753;BME280;2038;51.728;6.674;2023-03-04T04:02:05;101766.84;;;6.61;94.97
47753;BME280;2038;51.728;6.674;2023-03-04T04:04:32;101760.00;;;6.69;95.42
47753;BME280;2038;51.728;6.674;2023-03-04T04:06:58;101767.59;;;6.69;94.95
47753;BME280;2038;51.728;6.674;2023-03-04T04:09:24;101762.53;;;6.69;95.32
47753;BME280;2038;51.728;6.674;2023-03-04T04:11:50;101757.16;;;6.66;95.50
47753;BME280;2038;51.728;6.674;2023-03-04T04:14:16;101754.19;;;6.61;95.58
47753;BME280;2038;51.728;6.674;2023-03-04T04:16:43;101749.69;;;6.58;95.87
47753;BME280;2038;51.728;6.674;2023-03-04T04:19:17;101753.13;;;6.59;95.92
47753;BME280;2038;51.728;6.674;2023-03-04T04:21:45;101758.19;;;6.59;95.67
47753;BME280;2038;51.728;6.674;2023-03-04T04:24:11;101759.81;;;6.58;95.77
47753;BME280;2038;51.728;6.674;2023-03-04T04:26:38;101752.22;;;6.50;96.10
47753;BME280;2038;51.728;6.674;2023-03-04T04:29:04;101752.22;;;6.58;96.02
47753;BME280;2038;51.728;6.674;2023-03-04T04:31:30;101763.25;;;6.59;95.93
47753;BME280;2038;51.728;6.674;2023-03-04T04:33:57;101760.88;;;6.61;95.62
47753;BME280;2038;51.728;6.674;2023-03-04T04:36:23;101748.50;;;6.64;95.69
47753;BME280;2038;51.728;6.674;2023-03-04T04:38:49;101755.38;;;6.65;95.39
47753;BME280;2038;51.728;6.674;2023-03-04T04:41:21;101751.66;;;6.61;95.29
47753;BME280;2038;51.728;6.674;2023-03-04T04:43:49;101749.56;;;6.57;95.93
47753;BME280;2038;51.728;6.674;2023-03-04T04:46:16;101756.09;;;6.55;95.76
47753;BME280;2038;51.728;6.674;2023-03-04T04:48:42;101759.69;;;6.57;95.88
47753;BME280;2038;51.728;6.674;2023-03-04T04:51:09;101758.63;;;6.55;95.35
47753;BME280;2038;51.728;6.674;2023-03-04T04:53:36;101757.00;;;6.55;95.51
47753;BME280;2038;51.728;6.674;2023-03-04T04:56:21;101755.97;;;6.53;95.59
47753;BME280;2038;51.728;6.674;2023-03-04T04:58:51;101762.06;;;6.55;96.17
47753;BME280;2038;51.728;6.674;2023-03-04T05:01:19;101756.84;;;6.63;95.51
47753;BME280;2038;51.728;6.674;2023-03-04T05:03:46;101756.56;;;6.59;95.63
47753;BME280;2038;51.728;6.674;2023-03-04T05:06:14;101761.47;;;6.58;95.44
47753;BME280;2038;51.728;6.674;2023-03-04T05:08:41;101762.06;;;6.55;95.36
47753;BME280;2038;51.728;6.674;2023-03-04T05:11:07;101752.22;;;6.58;94.99
47753;BME280;2038;51.728;6.674;2023-03-04T05:13:34;101760.16;;;6.62;95.22
47753;BME280;2038;51.728;6.674;2023-03-04T05:16:01;101762.22;;;6.66;94.58
47753;BME280;2038;51.728;6.674;2023-03-04T05:18:28;101757.91;;;6.65;95.17
47753;BME280;2038;51.728;6.674;2023-03-04T05:20:57;101753.75;;;6.65;95.25
47753;BME280;2038;51.728;6.674;2023-03-04T05:23:26;101758.47;;;6.62;95.05
47753;BME280;2038;51.728;6.674;2023-03-04T05:25:54;101761.91;;;6.54;95.61
47753;BME280;2038;51.728;6.674;2023-03-04T05:28:20;101762.22;;;6.57;95.50
47753;BME280;2038;51.728;6.674;2023-03-04T05:30:46;101753.75;;;6.56;95.87
47753;BME280;2038;51.728;6.674;2023-03-04T05:33:14;101757.63;;;6.53;95.96
47753;BME280;2038;51.728;6.674;2023-03-04T05:35:42;101755.38;;;6.56;95.51
47753;BME280;2038;51.728;6.674;2023-03-04T05:38:12;101758.06;;;6.57;95.44
47753;BME280;2038;51.728;6.674;2023-03-04T05:40:40;101768.47;;;6.61;95.20
47753;BME280;2038;51.728;6.674;2023-03-04T05:43:07;101768.94;;;6.56;95.94
47753;BME280;2038;51.728;6.674;2023-03-04T05:45:34;101768.63;;;6.62;95.38
47753;BME280;2038;51.728;6.674;2023-03-04T05:48:01;101765.22;;;6.62;95.36
47753;BME280;2038;51.728;6.674;2023-03-04T05:50:28;101766.06;;;6.62;95.51
47753;BME280;2038;51.728;6.674;2023-03-04T05:52:54;101767.88;;;6.63;96.02
47753;BME280;2038;51.728;6.674;2023-03-04T05:55:20;101772.22;;;6.64;95.96
47753;BME280;2038;51.728;6.674;2023-03-04T05:57:47;101770.13;;;6.60;95.83
47753;BME280;2038;51.728;6.674;2023-03-04T06:00:15;101761.00;;;6.62;96.25
47753;BME280;2038;51.728;6.674;2023-03-04T06:02:42;101763.41;;;6.61;96.29
47753;BME280;2038;51.728;6.674;2023-03-04T06:05:11;101763.41;;;6.61;96.51
47753;BME280;2038;51.728;6.674;2023-03-04T06:07:38;101767.75;;;6.62;96.86
47753;BME280;2038;51.728;6.674;2023-03-04T06:10:06;101774.00;;;6.56;96.63
47753;BME280;2038;51.728;6.674;2023-03-04T06:12:32;101763.25;;;6.76;96.42
47753;BME280;2038;51.728;6.674;2023-03-04T06:14:58;101766.69;;;6.77;96.04
47753;BME280;2038;51.728;6.674;2023-03-04T06:17:25;101771.59;;;6.75;96.12
47753;BME280;2038;51.728;6.674;2023-03-04T06:19:51;101773.38;;;6.76;96.30
47753;BME280;2038;51.728;6.674;2023-03-04T06:22:17;101773.22;;;6.75;96.20
47753;BME280;2038;51.728;6.674;2023-03-04T06:24:43;101780.53;;;6.80;95.79
47753;BME280;2038;51.728;6.674;2023-03-04T06:27:10;101771.88;;;6.78;96.11
47753;BME280;2038;51.728;6.674;2023-03-04T06:29:36;101779.47;;;6.78;96.69
47753;BME280;2038;51.728;6.674;2023-03-04T06:32:02;101778.28;;;6.75;96.73
47753;BME280;2038;51.728;6.674;2023-03-04T06:34:28;101783.69;;;6.52;97.88
47753;BME280;2038;51.728;6.674;2023-03-04T06:36:55;101779.34;;;6.51;98.44
47753;BME280;2038;51.728;6.674;2023-03-04T06:39:21;101779.06;;;6.48;99.60
47753;BME280;2038;51.728;6.674;2023-03-04T06:41:47;101792.16;;;6.52;100.00
47753;BME280;2038;51.728;6.674;2023-03-04T06:44:13;101795.28;;;6.50;99.91
47753;BME280;2038;51.728;6.674;2023-03-04T06:46:39;101790.38;;;6.51;100.00
47753;BME280;2038;51.728;6.674;2023-03-04T06:49:06;101784.41;;;6.68;99.29
47753;BME280;2038;51.728;6.674;2023-03-04T06:51:32;101789.78;;;6.71;99.43
47753;BME280;2038;51.728;6.674;2023-03-04T06:53:58;101795.56;;;6.70;99.72
47753;BME280;2038;51.728;6.674;2023-03-04T06:56:24;101799.59;;;6.51;100.00
47753;BME280;2038;51.728;6.674;2023-03-04T06:58:50;101793.06;;;6.44;100.00
47753;BME280;2038;51.728;6.674;2023-03-04T07:03:51;101786.81;;;6.49;100.00
47753;BME280;2038;51.728;6.674;2023-03-04T07:06:21;101791.09;;;6.50;100.00
47753;BME280;2038;51.728;6.674;2023-03-04T07:08:49;101798.88;;;6.52;100.00
47753;BME280;2038;51.728;6.674;2023-03-04T07:11:17;101794.69;;;6.52;100.00
47753;BME280;2038;51.728;6.674;2023-03-04T07:13:44;101792.00;;;6.59;100.00
47753;BME280;2038;51.728;6.674;2023-03-04T07:16:12;101800.50;;;6.60;100.00
47753;BME280;2038;51.728;6.674;2023-03-04T07:18:40;101801.25;;;6.68;100.00
47753;BME280;2038;51.728;6.674;2023-03-04T07:21:07;101786.97;;;6.77;100.00
47753;BME280;2038;51.728;6.674;2023-03-04T07:23:34;101798.56;;;6.75;100.00
47753;BME280;2038;51.728;6.674;2023-03-04T07:26:02;101796.94;;;6.75;100.00
47753;BME280;2038;51.728;6.674;2023-03-04T07:28:29;101791.56;;;6.81;100.00
47753;BME280;2038;51.728;6.674;2023-03-04T07:30:55;101795.00;;;6.73;100.00
47753;BME280;2038;51.728;6.674;2023-03-04T07:33:21;101800.66;;;6.70;100.00
47753;BME280;2038;51.728;6.674;2023-03-04T07:35:48;101807.66;;;6.64;100.00
47753;BME280;2038;51.728;6.674;2023-03-04T07:38:14;101805.28;;;6.66;100.00
47753;BME280;2038;51.728;6.674;2023-03-04T07:40:40;101802.72;;;6.74;100.00
47753;BME280;2038;51.728;6.674;2023-03-04T07:43:06;101797.66;;;6.74;100.00
47753;BME280;2038;51.728;6.674;2023-03-04T07:45:33;101796.31;;;6.86;100.00
47753;BME280;2038;51.728;6.674;2023-03-04T07:47:59;101801.72;;;6.89;100.00
47753;BME280;2038;51.728;6.674;2023-03-04T07:50:25;101806.91;;;6.82;100.00
47753;BME280;2038;51.728;6.674;2023-03-04T07:52:51;101804.06;;;6.88;100.00
47753;BME280;2038;51.728;6.674;2023-03-04T07:55:18;101807.97;;;6.93;100.00
47753;BME280;2038;51.728;6.674;2023-03-04T07:57:46;101803.00;;;6.94;100.00
47753;BME280;2038;51.728;6.674;2023-03-04T08:00:14;101805.72;;;6.96;100.00
47753;BME280;2038;51.728;6.674;2023-03-04T08:02:41;101806.00;;;6.99;100.00
47753;BME280;2038;51.728;6.674;2023-03-04T08:05:08;101799.47;;;6.92;100.00
47753;BME280;2038;51.728;6.674;2023-03-04T08:07:35;101799.91;;;6.88;100.00
47753;BME280;2038;51.728;6.674;2023-03-04T08:10:01;101802.28;;;6.95;100.00
47753;BME280;2038;51.728;6.674;2023-03-04T08:12:28;101801.53;;;6.96;100.00
47753;BME280;2038;51.728;6.674;2023-03-04T08:14:54;101802.44;;;6.97;100.00
47753;BME280;2038;51.728;6.674;2023-03-04T08:17:20;101810.78;;;6.96;100.00
47753;BME280;2038;51.728;6.674;2023-03-04T08:19:47;101800.94;;;6.99;100.00
47753;BME280;2038;51.728;6.674;2023-03-04T08:22:13;101805.72;;;6.96;100.00
47753;BME280;2038;51.728;6.674;2023-03-04T08:24:39;101806.44;;;7.03;100.00
47753;BME280;2038;51.728;6.674;2023-03-04T08:27:06;101805.25;;;7.09;100.00
47753;BME280;2038;51.728;6.674;2023-03-04T08:29:32;101808.53;;;7.07;100.00
47753;BME280;2038;51.728;6.674;2023-03-04T08:31:58;101814.03;;;7.03;100.00
47753;BME280;2038;51.728;6.674;2023-03-04T08:34:26;101811.38;;;7.02;100.00
47753;BME280;2038;51.728;6.674;2023-03-04T08:36:54;101811.50;;;7.12;100.00
47753;BME280;2038;51.728;6.674;2023-03-04T08:39:20;101815.81;;;7.22;100.00
47753;BME280;2038;51.728;6.674;2023-03-04T08:41:47;101805.06;;;7.24;100.00
47753;BME280;2038;51.728;6.674;2023-03-04T08:44:15;101803.88;;;7.21;100.00
47753;BME280;2038;51.728;6.674;2023-03-04T08:46:42;101815.50;;;7.27;100.00
47753;BME280;2038;51.728;6.674;2023-03-04T08:49:11;101813.13;;;7.29;100.00
47753;BME280;2038;51.728;6.674;2023-03-04T08:51:38;101813.38;;;7.40;100.00
47753;BME280;2038;51.728;6.674;2023-03-04T08:54:04;101821.88;;;7.41;100.00
47753;BME280;2038;51.728;6.674;2023-03-04T08:56:31;101816.38;;;7.36;100.00
47753;BME280;2038;51.728;6.674;2023-03-04T08:58:58;101810.13;;;7.33;100.00
47753;BME280;2038;51.728;6.674;2023-03-04T09:01:24;101811.13;;;7.43;100.00
47753;BME280;2038;51.728;6.674;2023-03-04T09:03:50;101816.00;;;7.59;100.00
47753;BME280;2038;51.728;6.674;2023-03-04T09:06:17;101808.22;;;7.66;100.00
47753;BME280;2038;51.728;6.674;2023-03-04T09:08:44;101812.56;;;7.59;100.00
47753;BME280;2038;51.728;6.674;2023-03-04T09:11:11;101804.75;;;7.74;100.00
47753;BME280;2038;51.728;6.674;2023-03-04T09:13:38;101804.00;;;7.75;100.00
47753;BME280;2038;51.728;6.674;2023-03-04T09:16:10;101800.78;;;7.86;100.00
47753;BME280;2038;51.728;6.674;2023-03-04T09:18:37;101801.81;;;7.97;100.00
47753;BME280;2038;51.728;6.674;2023-03-04T09:21:05;101796.22;;;8.10;100.00
47753;BME280;2038;51.728;6.674;2023-03-04T09:23:33;101792.44;;;8.15;100.00
47753;BME280;2038;51.728;6.674;2023-03-04T09:26:00;101799.22;;;8.06;100.00
47753;BME280;2038;51.728;6.674;2023-03-04T09:28:26;101797.00;;;8.00;100.00
47753;BME280;2038;51.728;6.674;2023-03-04T09:30:52;101807.44;;;8.03;100.00
47753;BME280;2038;51.728;6.674;2023-03-04T09:33:19;101801.06;;;7.98;100.00
47753;BME280;2038;51.728;6.674;2023-03-04T09:35:45;101805.75;;;8.12;100.00
47753;BME280;2038;51.728;6.674;2023-03-04T09:38:13;101801.38;;;8.20;100.00
47753;BME280;2038;51.728;6.674;2023-03-04T09:40:42;101800.78;;;8.22;100.00
47753;BME280;2038;51.728;6.674;2023-03-04T09:43:19;101802.59;;;8.15;100.00
47753;BME280;2038;51.728;6.674;2023-03-04T09:45:52;101794.00;;;8.04;100.00
47753;BME280;2038;51.728;6.674;2023-03-04T09:48:27;101803.22;;;7.85;100.00
47753;BME280;2038;51.728;6.674;2023-03-04T09:54:10;101789.38;;;8.00;100.00
47753;BME280;2038;51.728;6.674;2023-03-04T10:00:18;101784.34;;;7.91;100.00
47753;BME280;2038;51.728;6.674;2023-03-04T10:11:25;101768.84;;;7.88;100.00
47753;BME280;2038;51.728;6.674;2023-03-04T10:14:03;101771.16;;;8.04;100.00
47753;BME280;2038;51.728;6.674;2023-03-04T10:16:51;101765.97;;;8.21;100.00
47753;BME280;2038;51.728;6.674;2023-03-04T10:19:36;101766.50;;;8.27;100.00
47753;BME280;2038;51.728;6.674;2023-03-04T10:22:40;101762.84;;;8.15;100.00
47753;BME280;2038;51.728;6.674;2023-03-04T10:25:25;101767.59;;;8.29;100.00
47753;BME280;2038;51.728;6.674;2023-03-04T10:27:59;101767.41;;;8.28;100.00
47753;BME280;2038;51.728;6.674;2023-03-04T10:30:45;101762.63;;;8.31;100.00
47753;BME280;2038;51.728;6.674;2023-03-04T10:33:35;101775.53;;;8.42;100.00
47753;BME280;2038;51.728;6.674;2023-03-04T10:36:26;101767.59;;;8.48;100.00
47753;BME280;2038;51.728;6.674;2023-03-04T10:39:00;101762.78;;;8.51;100.00
47753;BME280;2038;51.728;6.674;2023-03-04T10:41:31;101758.44;;;8.69;100.00
47753;BME280;2038;51.728;6.674;2023-03-04T10:44:03;101761.19;;;8.62;100.00
47753;BME280;2038;51.728;6.674;2023-03-04T10:46:39;101758.59;;;8.70;100.00
47753;BME280;2038;51.728;6.674;2023-03-04T10:49:11;101760.03;;;8.58;100.00
47753;BME280;2038;51.728;6.674;2023-03-04T10:51:45;101762.78;;;8.51;100.00
47753;BME280;2038;51.728;6.674;2023-03-04T10:54:37;101761.75;;;8.49;100.00
47753;BME280;2038;51.728;6.674;2023-03-04T10:57:25;101761.06;;;8.41;100.00
47753;BME280;2038;51.728;6.674;2023-03-04T10:59:59;101768.16;;;8.27;100.00
47753;BME280;2038;51.728;6.674;2023-03-04T11:02:30;101761.97;;;8.15;100.00
47753;BME280;2038;51.728;6.674;2023-03-04T11:05:22;101747.63;;;8.15;100.00
47753;BME280;2038;51.728;6.674;2023-03-04T11:07:55;101750.84;;;8.23;100.00
47753;BME280;2038;51.728;6.674;2023-03-04T11:18:41;101741.59;;;8.23;100.00
47753;BME280;2038;51.728;6.674;2023-03-04T11:21:23;101751.72;;;8.32;100.00
47753;BME280;2038;51.728;6.674;2023-03-04T11:24:13;101744.94;;;8.41;100.00
47753;BME280;2038;51.728;6.674;2023-03-04T11:26:50;101749.53;;;8.45;100.00
47753;BME280;2038;51.728;6.674;2023-03-04T11:32:29;101739.72;;;8.58;100.00
47753;BME280;2038;51.728;6.674;2023-03-04T11:35:26;101736.47;;;8.69;100.00
47753;BME280;2038;51.728;6.674;2023-03-04T11:40:52;101730.31;;;8.57;100.00
47753;BME280;2038;51.728;6.674;2023-03-04T11:43:36;101731.59;;;8.43;100.00
47753;BME280;2038;51.728;6.674;2023-03-04T11:52:32;101718.88;;;8.25;100.00
47753;BME280;2038;51.728;6.674;2023-03-04T11:55:33;101722.66;;;8.20;100.00
47753;BME280;2038;51.728;6.674;2023-03-04T12:01:08;101721.75;;;8.19;100.00
47753;BME280;2038;51.728;6.674;2023-03-04T12:03:43;101712.06;;;8.15;100.00
47753;BME280;2038;51.728;6.674;2023-03-04T12:09:39;101708.09;;;8.27;100.00
47753;BME280;2038;51.728;6.674;2023-03-04T12:27:20;101683.94;;;8.60;100.00
47753;BME280;2038;51.728;6.674;2023-03-04T12:30:15;101677.84;;;8.58;100.00
47753;BME280;2038;51.728;6.674;2023-03-04T12:35:45;101663.34;;;8.57;100.00
47753;BME280;2038;51.728;6.674;2023-03-04T12:49:45;101673.09;;;8.81;100.00
47753;BME280;2038;51.728;6.674;2023-03-04T12:52:44;101662.69;;;8.78;100.00
47753;BME280;2038;51.728;6.674;2023-03-04T12:55:39;101670.81;;;8.84;100.00
47753;BME280;2038;51.728;6.674;2023-03-04T12:58:19;101663.19;;;8.84;100.00
47753;BME280;2038;51.728;6.674;2023-03-04T13:00:51;101664.25;;;8.86;100.00
47753;BME280;2038;51.728;6.674;2023-03-04T13:09:33;101658.41;;;8.97;100.00
47753;BME280;2038;51.728;6.674;2023-03-04T13:12:16;101657.03;;;9.01;100.00
47753;BME280;2038;51.728;6.674;2023-03-04T13:17:48;101653.50;;;9.09;100.00
47753;BME280;2038;51.728;6.674;2023-03-04T13:20:38;101639.47;;;9.04;100.00
47753;BME280;2038;51.728;6.674;2023-03-04T13:23:23;101640.13;;;9.01;100.00
47753;BME280;2038;51.728;6.674;2023-03-04T13:26:15;101647.75;;;9.01;100.00
47753;BME280;2038;51.728;6.674;2023-03-04T13:28:43;101644.94;;;8.98;100.00
47753;BME280;2038;51.728;6.674;2023-03-04T13:36:03;101644.41;;;8.92;100.00
47753;BME280;2038;51.728;6.674;2023-03-04T13:41:51;101634.25;;;8.92;100.00
47753;BME280;2038;51.728;6.674;2023-03-04T13:44:55;101630.19;;;8.94;100.00
47753;BME280;2038;51.728;6.674;2023-03-04T13:47:33;101629.91;;;8.91;100.00
47753;BME280;2038;51.728;6.674;2023-03-04T13:51:00;101625.63;;;8.90;100.00
47753;BME280;2038;51.728;6.674;2023-03-04T13:53:37;101627.88;;;8.87;100.00
47753;BME280;2038;51.728;6.674;2023-03-04T13:56:18;101621.38;;;8.80;100.00
47753;BME280;2038;51.728;6.674;2023-03-04T13:58:49;101615.44;;;8.90;100.00
47753;BME280;2038;51.728;6.674;2023-03-04T14:01:29;101616.69;;;8.95;100.00
47753;BME280;2038;51.728;6.674;2023-03-04T14:03:58;101623.84;;;8.99;100.00
47753;BME280;2038;51.728;6.674;2023-03-04T14:06:27;101615.44;;;9.00;100.00
47753;BME280;2038;51.728;6.674;2023-03-04T14:08:57;101616.50;;;9.02;100.00
47753;BME280;2038;51.728;6.674;2023-03-04T14:11:34;101610.63;;;9.03;100.00
47753;BME280;2038;51.728;6.674;2023-03-04T14:14:09;101609.38;;;8.98;99.79
47753;BME280;2038;51.728;6.674;2023-03-04T14:16:50;101610.88;;;8.96;100.00
47753;BME280;2038;51.728;6.674;2023-03-04T14:19:27;101606.03;;;8.99;99.78
47753;BME280;2038;51.728;6.674;2023-03-04T14:21:57;101611.41;;;9.02;100.00
47753;BME280;2038;51.728;6.674;2023-03-04T14:24:25;101605.28;;;9.00;100.00
47753;BME280;2038;51.728;6.674;2023-03-04T14:27:10;101602.84;;;8.91;100.00
47753;BME280;2038;51.728;6.674;2023-03-04T14:29:39;101607.31;;;8.94;100.00
47753;BME280;2038;51.728;6.674;2023-03-04T14:32:05;101607.22;;;9.03;100.00
47753;BME280;2038;51.728;6.674;2023-03-04T14:34:37;101597.69;;;9.10;99.59
47753;BME280;2038;51.728;6.674;2023-03-04T14:37:20;101596.00;;;9.11;99.37
47753;BME280;2038;51.728;6.674;2023-03-04T14:39:51;101598.56;;;9.11;98.07
47753;BME280;2038;51.728;6.674;2023-03-04T14:42:24;101590.31;;;9.13;98.57
47753;BME280;2038;51.728;6.674;2023-03-04T14:45:01;101594.50;;;9.13;98.04
47753;BME280;2038;51.728;6.674;2023-03-04T14:47:31;101596.28;;;9.14;97.39
47753;BME280;2038;51.728;6.674;2023-03-04T14:50:25;101593.34;;;9.19;96.92
47753;BME280;2038;51.728;6.674;2023-03-04T14:55:36;101590.41;;;9.05;95.60
47753;BME280;2038;51.728;6.674;2023-03-04T14:58:07;101588.88;;;9.07;94.96